createdAt,value
2017-11-04T08:00:39.673Z,80.00
2017-11-04T08:03:07.192Z,79.30
2017-11-04T08:05:35.508Z,80.60
2017-11-04T08:08:03.027Z,80.60
2017-11-04T08:10:30.560Z,79.50
2017-11-04T08:12:58.085Z,79.30
2017-11-04T08:15:25.604Z,78.70
2017-11-04T08:17:53.911Z,77.50
2017-11-04T08:20:22.202Z,76.90
2017-11-04T08:22:50.482Z,76.40
2017-11-04T08:25:18.777Z,75.70
2017-11-04T08:27:46.304Z,75.70
2017-11-04T08:30:13.847Z,75.10
2017-11-04T08:32:41.336Z,75.80
2017-11-04T08:35:08.824Z,75.80
2017-11-04T08:37:36.351Z,76.00
2017-11-04T08:40:03.881Z,75.60
2017-11-04T08:42:31.406Z,76.30
2017-11-04T08:44:59.672Z,75.90
2017-11-04T08:47:27.202Z,75.80
2017-11-04T08:49:54.708Z,74.70
2017-11-04T08:52:23.008Z,73.00
2017-11-04T08:54:50.565Z,72.80
2017-11-04T08:57:18.166Z,71.70
2017-11-04T08:59:45.716Z,72.40
2017-11-04T09:02:17.154Z,70.10
2017-11-04T09:04:44.657Z,68.00
2017-11-04T09:07:12.150Z,66.80
2017-11-04T09:09:40.251Z,65.20
2017-11-04T09:12:07.784Z,63.10
2017-11-04T09:14:35.324Z,59.70
2017-11-04T09:17:02.835Z,58.40
2017-11-04T09:19:31.135Z,57.50
2017-11-04T09:21:58.698Z,57.50
2017-11-04T09:24:26.191Z,56.50
2017-11-04T09:26:53.670Z,55.90
2017-11-04T09:29:21.232Z,55.60
2017-11-04T09:31:48.716Z,55.10
2017-11-04T09:34:16.991Z,53.40
2017-11-04T09:36:44.520Z,53.30
2017-11-04T09:39:12.067Z,50.70
2017-11-04T09:41:39.559Z,50.50
2017-11-04T09:44:07.063Z,51.10
2017-11-04T09:46:35.352Z,51.60
2017-11-04T09:49:02.930Z,51.50
2017-11-04T09:51:30.428Z,51.20
2017-11-04T09:53:57.981Z,51.20
2017-11-04T09:56:25.471Z,52.30
2017-11-04T09:58:52.980Z,52.60
2017-11-04T10:01:20.625Z,52.10
2017-11-04T10:03:48.914Z,52.00
2017-11-04T10:06:17.208Z,51.20
2017-11-04T10:08:44.742Z,51.20
2017-11-04T10:11:13.134Z,50.20
2017-11-04T10:13:41.398Z,50.40
2017-11-04T10:16:08.902Z,50.40
2017-11-04T10:18:36.427Z,50.70
2017-11-04T10:21:03.949Z,51.20
2017-11-04T10:23:31.440Z,50.30
2017-11-04T10:25:58.931Z,50.60
2017-11-04T10:28:27.220Z,51.40
2017-11-04T10:30:55.508Z,52.50
2017-11-04T10:33:23.028Z,52.40
2017-11-04T10:35:50.574Z,51.90
2017-11-04T10:38:18.054Z,50.80
2017-11-04T10:40:45.543Z,49.60
2017-11-04T10:43:13.825Z,47.40
2017-11-04T10:45:42.128Z,46.30
2017-11-04T10:48:09.612Z,46.20
2017-11-04T10:50:37.148Z,42.10
2017-11-04T10:53:04.640Z,38.90
2017-11-04T10:55:32.153Z,40.10
2017-11-04T10:58:00.458Z,41.10
2017-11-04T11:00:27.983Z,41.00
2017-11-04T11:02:55.504Z,41.50
2017-11-04T11:05:23.040Z,42.50
2017-11-04T11:07:51.299Z,44.60
2017-11-04T11:10:18.835Z,44.60
2017-11-04T11:12:46.323Z,45.50
2017-11-04T11:15:13.809Z,46.50
2017-11-04T11:17:42.092Z,46.80
2017-11-04T11:20:09.589Z,46.80
2017-11-04T11:22:37.114Z,47.00
2017-11-04T11:25:05.403Z,45.00
2017-11-04T11:27:32.914Z,45.00
2017-11-04T11:30:01.041Z,44.60
2017-11-04T11:32:28.530Z,44.10
2017-11-04T11:34:56.079Z,42.80
2017-11-04T11:37:23.574Z,40.80
2017-11-04T11:39:51.064Z,39.70
2017-11-04T11:42:18.611Z,38.10
2017-11-04T11:44:46.114Z,37.40
2017-11-04T11:47:14.431Z,35.20
2017-11-04T11:49:41.918Z,35.30
2017-11-04T11:52:09.436Z,35.50
2017-11-04T11:54:36.975Z,35.70
2017-11-04T11:57:05.262Z,34.50
2017-11-04T11:59:33.523Z,34.40
2017-11-04T12:02:01.412Z,34.30
2017-11-04T12:04:29.674Z,34.00
2017-11-04T12:06:57.174Z,34.10
2017-11-04T12:09:24.695Z,32.90
2017-11-04T12:11:52.302Z,32.30
2017-11-04T12:14:19.869Z,32.20
2017-11-04T12:16:47.355Z,32.10
2017-11-04T12:19:14.839Z,31.50
2017-11-04T12:21:42.375Z,31.30
2017-11-04T12:24:09.918Z,31.30
2017-11-04T12:26:37.410Z,31.00
2017-11-04T12:29:04.892Z,31.40
2017-11-04T12:31:32.427Z,31.80
2017-11-04T12:33:59.910Z,32.50
2017-11-04T12:36:27.412Z,35.00
2017-11-04T12:38:54.929Z,35.80
2017-11-04T12:41:22.430Z,36.80
2017-11-04T12:43:49.953Z,38.60
2017-11-04T12:46:17.584Z,40.20
2017-11-04T12:48:45.075Z,40.50
2017-11-04T12:51:12.634Z,40.20
2017-11-04T12:53:40.162Z,39.30
2017-11-04T12:56:08.418Z,39.40
2017-11-04T12:58:35.907Z,39.40
2017-11-04T13:01:04.227Z,41.20
2017-11-04T13:03:31.721Z,41.20
2017-11-04T13:05:59.251Z,42.30
2017-11-04T13:08:26.740Z,43.80
2017-11-04T13:10:54.267Z,43.10
2017-11-04T13:13:21.847Z,42.30
2017-11-04T13:15:49.385Z,41.70
2017-11-04T13:18:16.884Z,42.60
2017-11-04T13:20:44.599Z,42.30
2017-11-04T13:23:12.858Z,43.50
2017-11-04T13:25:40.389Z,43.50
2017-11-04T13:28:07.919Z,43.50
2017-11-04T13:30:36.179Z,42.40
2017-11-04T13:33:03.664Z,42.50
2017-11-04T13:35:31.213Z,41.90
2017-11-04T13:37:59.480Z,39.70
2017-11-04T13:40:27.752Z,40.80
2017-11-04T13:42:55.276Z,40.80
2017-11-04T13:45:22.824Z,40.40
2017-11-04T13:47:50.346Z,41.70
2017-11-04T13:50:17.835Z,40.50
2017-11-04T13:52:46.122Z,40.90
2017-11-04T13:55:13.602Z,40.90
2017-11-04T13:57:41.139Z,41.80
2017-11-04T14:00:09.386Z,40.00
2017-11-04T14:02:36.877Z,40.00
2017-11-04T14:05:05.287Z,39.60
2017-11-04T14:07:32.790Z,39.50
2017-11-04T14:10:00.276Z,41.30
2017-11-04T14:12:27.799Z,40.50
2017-11-04T14:14:55.300Z,40.30
2017-11-04T14:17:22.835Z,41.10
2017-11-04T14:19:50.316Z,42.10
2017-11-04T14:22:17.832Z,43.10
2017-11-04T14:24:45.322Z,44.00
2017-11-04T14:27:12.852Z,43.90
2017-11-04T14:29:40.352Z,44.40
2017-11-04T14:32:07.888Z,43.90
2017-11-04T14:34:35.455Z,44.20
2017-11-04T14:37:03.707Z,44.30
2017-11-04T14:39:31.981Z,44.90
2017-11-04T14:42:00.261Z,45.30
2017-11-04T14:44:28.504Z,45.70
2017-11-04T14:46:56.023Z,45.70
2017-11-04T14:49:23.508Z,45.30
2017-11-04T14:51:50.991Z,46.10
2017-11-04T14:54:18.525Z,46.10
2017-11-04T14:56:46.025Z,46.90
2017-11-04T14:59:13.503Z,47.80
2017-11-04T15:01:41.019Z,48.40
2017-11-04T15:04:08.659Z,48.90
2017-11-04T15:06:36.148Z,49.50
2017-11-04T15:09:03.629Z,50.30
2017-11-04T15:11:31.169Z,51.10
2017-11-04T15:13:58.655Z,53.00
2017-11-04T15:16:26.130Z,53.10
2017-11-04T15:18:53.654Z,54.30
2017-11-04T15:21:21.131Z,54.60
2017-11-04T15:23:48.648Z,55.40
2017-11-04T15:26:16.123Z,55.90
2017-11-04T15:28:44.423Z,57.10
2017-11-04T15:31:11.915Z,57.20
2017-11-04T15:33:39.403Z,57.30
2017-11-04T15:36:06.910Z,57.50
2017-11-04T15:38:34.419Z,58.30
2017-11-04T15:41:01.969Z,59.10
2017-11-04T15:43:29.446Z,58.90
2017-11-04T15:45:56.952Z,59.80
2017-11-04T15:48:24.481Z,60.10
2017-11-04T15:50:51.972Z,60.50
2017-11-04T15:53:19.522Z,60.50
2017-11-04T15:55:47.003Z,61.00
2017-11-04T15:58:15.269Z,63.20
2017-11-04T16:00:43.563Z,64.00
2017-11-04T16:03:11.836Z,65.80
2017-11-04T16:05:40.135Z,66.40
2017-11-04T16:08:07.678Z,66.10
2017-11-04T16:10:35.935Z,68.40
2017-11-04T16:13:03.458Z,68.30
2017-11-04T16:15:30.949Z,69.30
2017-11-04T16:17:58.479Z,70.60
2017-11-04T16:20:25.986Z,72.00
2017-11-04T16:22:53.540Z,71.70
2017-11-04T16:25:21.084Z,72.60
2017-11-04T16:27:48.603Z,73.10
2017-11-04T16:30:16.900Z,74.10
2017-11-04T16:32:44.431Z,74.00
2017-11-04T16:35:11.911Z,74.30
2017-11-04T16:37:40.203Z,74.40
2017-11-04T16:40:07.718Z,74.30
2017-11-04T16:42:35.251Z,73.80
2017-11-04T16:45:02.759Z,73.80
2017-11-04T16:47:30.251Z,73.00
2017-11-04T16:49:58.560Z,73.70
2017-11-04T16:52:26.052Z,73.50
2017-11-04T16:54:53.542Z,73.90
2017-11-04T16:57:21.072Z,74.80
2017-11-04T16:59:48.594Z,74.50
2017-11-04T17:02:16.102Z,74.30
2017-11-04T17:04:43.619Z,73.90
2017-11-04T17:07:11.143Z,73.80
2017-11-04T17:09:38.661Z,73.80
2017-11-04T17:12:06.207Z,73.10
2017-11-04T17:14:33.706Z,72.80
2017-11-04T17:17:01.194Z,73.50
2017-11-04T17:19:28.724Z,75.30
2017-11-04T17:21:56.216Z,75.60
2017-11-04T17:24:23.783Z,75.60
2017-11-04T17:26:51.287Z,76.10
2017-11-04T17:29:18.940Z,76.30
2017-11-04T17:31:47.222Z,76.90
2017-11-04T17:34:15.480Z,77.40
2017-11-04T17:36:42.966Z,77.40
2017-11-04T17:39:11.246Z,78.00
2017-11-04T17:41:39.515Z,78.60
2017-11-04T17:44:07.021Z,78.50
2017-11-04T17:46:34.542Z,78.20
2017-11-04T17:49:02.038Z,78.10
2017-11-04T17:51:29.557Z,78.40
2017-11-04T17:53:57.070Z,79.20
2017-11-04T17:56:24.597Z,79.50
2017-11-04T17:58:52.087Z,79.10
2017-11-04T18:01:19.606Z,79.60
2017-11-04T18:03:47.141Z,79.70
2017-11-04T18:06:14.671Z,80.40
2017-11-04T18:08:42.367Z,81.00
2017-11-04T18:11:09.894Z,81.00
2017-11-04T18:13:38.147Z,81.00
2017-11-04T18:16:05.669Z,80.90
2017-11-04T18:18:33.220Z,80.60
2017-11-04T18:21:00.718Z,80.20
2017-11-04T18:23:28.235Z,80.10
2017-11-04T18:25:56.522Z,79.30
2017-11-04T18:28:24.053Z,79.30
2017-11-04T18:30:51.578Z,79.20
2017-11-04T18:33:19.088Z,79.40
2017-11-04T18:35:47.376Z,81.30
2017-11-04T18:38:15.642Z,81.90
2017-11-04T18:40:43.190Z,81.10
2017-11-04T18:43:10.744Z,81.10
2017-11-04T18:45:38.233Z,81.10
2017-11-04T18:48:05.763Z,81.00
2017-11-04T18:50:33.260Z,81.50
2017-11-04T18:53:00.794Z,80.90
2017-11-04T18:55:28.291Z,80.60
2017-11-04T18:57:55.800Z,80.50
2017-11-04T19:00:23.323Z,81.60
2017-11-04T19:02:51.584Z,82.20
2017-11-04T19:05:19.244Z,81.60
2017-11-04T19:07:46.785Z,81.90
2017-11-04T19:10:14.272Z,82.30
2017-11-04T19:12:41.808Z,82.20
2017-11-04T19:15:09.316Z,82.40
2017-11-04T19:17:37.591Z,82.40
2017-11-04T19:20:05.132Z,82.20
2017-11-04T19:22:32.619Z,82.70
2017-11-04T19:25:00.159Z,83.20
2017-11-04T19:27:27.646Z,83.70
2017-11-04T19:29:55.170Z,83.90
2017-11-04T19:32:22.748Z,84.50
2017-11-04T19:34:50.286Z,84.50
2017-11-04T19:37:17.772Z,84.20
2017-11-04T19:39:45.265Z,85.20
2017-11-04T19:42:12.954Z,85.60
2017-11-04T19:44:40.448Z,86.60
2017-11-04T19:47:07.983Z,86.80
2017-11-04T19:49:35.492Z,86.50
2017-11-04T19:52:03.040Z,86.30
2017-11-04T19:54:30.527Z,86.90
2017-11-04T19:56:58.089Z,87.30
2017-11-04T19:59:25.578Z,86.90
2017-11-04T20:01:53.910Z,87.10
2017-11-04T20:04:21.407Z,87.00
2017-11-04T20:06:48.907Z,87.00
2017-11-04T20:09:17.186Z,87.60
2017-11-04T20:11:45.455Z,88.20
2017-11-04T20:14:13.755Z,87.80
2017-11-04T20:16:41.253Z,87.70
2017-11-04T20:19:08.776Z,88.90
2017-11-04T20:21:37.063Z,88.80
2017-11-04T20:24:04.592Z,88.70
2017-11-04T20:26:32.104Z,88.30
2017-11-04T20:28:59.620Z,88.80
2017-11-04T20:31:27.143Z,89.30
2017-11-04T20:33:54.639Z,89.10
2017-11-04T20:36:22.170Z,89.00
2017-11-04T20:38:49.742Z,89.00
2017-11-04T20:41:17.227Z,89.10
2017-11-04T20:43:44.717Z,90.00
2017-11-04T20:46:13.019Z,89.80
2017-11-04T20:48:40.539Z,89.90
2017-11-04T20:51:08.099Z,89.60
2017-11-04T20:53:35.592Z,88.70
2017-11-04T20:56:03.857Z,88.30
2017-11-04T20:58:31.377Z,88.30
2017-11-04T21:00:58.858Z,88.40
2017-11-04T21:03:26.666Z,88.80
2017-11-04T21:05:54.930Z,88.20
2017-11-04T21:08:22.439Z,88.20
2017-11-04T21:10:49.956Z,88.60
2017-11-04T21:13:17.498Z,89.10
2017-11-04T21:15:45.016Z,89.40
2017-11-04T21:18:12.542Z,92.10
2017-11-04T21:20:40.039Z,95.30
2017-11-04T21:23:07.570Z,95.00
2017-11-04T21:25:35.077Z,94.00
2017-11-04T21:28:02.566Z,92.70
2017-11-04T21:30:30.093Z,91.60
2017-11-04T21:32:57.623Z,91.90
2017-11-04T21:35:25.116Z,90.50
2017-11-04T21:37:52.607Z,86.70
2017-11-04T21:40:20.127Z,85.90
2017-11-04T21:42:48.391Z,87.50
2017-11-04T21:45:15.931Z,86.60
2017-11-04T21:47:43.415Z,86.90
2017-11-04T21:50:10.899Z,87.60
2017-11-04T21:52:39.195Z,90.30
2017-11-04T21:55:06.706Z,90.00
2017-11-04T21:57:34.195Z,89.30
2017-11-04T22:00:01.711Z,89.10
2017-11-04T22:02:29.230Z,89.90
2017-11-04T22:04:57.499Z,88.90
2017-11-04T22:07:25.030Z,88.80
2017-11-04T22:09:53.422Z,89.30
2017-11-04T22:12:20.905Z,89.70
2017-11-04T22:14:48.419Z,90.20
2017-11-04T22:17:15.941Z,90.20
2017-11-04T22:19:43.523Z,90.20
2017-11-04T22:22:11.822Z,90.60
2017-11-04T22:24:39.318Z,90.60
2017-11-04T22:27:06.868Z,90.20
2017-11-04T22:29:34.416Z,90.50
2017-11-04T22:32:02.311Z,91.10
2017-11-04T22:34:30.495Z,95.40
2017-11-04T22:36:58.011Z,96.00
2017-11-04T22:39:25.649Z,95.10
2017-11-04T22:41:53.167Z,94.50
2017-11-04T22:44:20.689Z,93.10
2017-11-04T22:46:48.186Z,92.30
2017-11-04T22:49:15.721Z,89.90
2017-11-04T22:51:43.983Z,85.60
2017-11-04T22:54:12.210Z,85.50
2017-11-04T22:56:39.716Z,85.80
2017-11-04T22:59:07.553Z,85.70
2017-11-04T23:01:35.082Z,87.50
2017-11-04T23:04:03.393Z,90.60
2017-11-04T23:06:30.920Z,90.60
2017-11-04T23:08:59.190Z,91.10
2017-11-04T23:11:26.735Z,90.90
2017-11-04T23:13:54.234Z,92.90
2017-11-04T23:16:22.503Z,90.50
2017-11-04T23:18:50.031Z,90.30
2017-11-04T23:21:17.559Z,90.80
2017-11-04T23:23:45.103Z,90.20
2017-11-04T23:26:12.671Z,88.00
2017-11-04T23:28:40.933Z,86.10
2017-11-04T23:31:08.477Z,86.20
2017-11-04T23:33:35.968Z,86.80
2017-11-04T23:36:03.496Z,88.70
2017-11-04T23:38:30.998Z,88.20
2017-11-04T23:40:59.306Z,87.50
2017-11-04T23:43:26.826Z,87.50
2017-11-04T23:45:54.366Z,84.10
2017-11-04T23:48:21.890Z,82.30
2017-11-04T23:50:49.377Z,82.30
2017-11-04T23:53:16.936Z,83.20
2017-11-04T23:55:44.524Z,84.90
2017-11-04T23:58:15.884Z,86.10
